sensor_id;sensor_type;location;lat;lon;timestamp;pressure;altitude;pressure_sealevel;temperature;humidity
50302;BME280;36550;50.472;19.744;2023-02-10T00:00:55;99636.04;;;-3.57;65.90
50302;BME280;36550;50.472;19.744;2023-02-10T00:03:40;99628.45;;;-3.56;65.87
50302;BME280;36550;50.472;19.744;2023-02-10T00:06:26;99634.48;;;-3.54;66.07
50302;BME280;36550;50.472;19.744;2023-02-10T00:09:12;99632.33;;;-3.53;66.13
50302;BME280;36550;50.472;19.744;2023-02-10T00:11:57;99638.10;;;-3.50;66.11
50302;BME280;36550;50.472;19.744;2023-02-10T00:14:42;99627.92;;;-3.46;66.23
50302;BME280;36550;50.472;19.744;2023-02-10T00:17:25;99621.70;;;-3.42;66.32
50302;BME280;36550;50.472;19.744;2023-02-10T00:20:10;99614.61;;;-3.39;66.34
50302;BME280;36550;50.472;19.744;2023-02-10T00:22:54;99607.55;;;-3.33;66.50
50302;BME280;36550;50.472;19.744;2023-02-10T00:25:38;99600.56;;;-3.26;66.53
50302;BME280;36550;50.472;19.744;2023-02-10T00:28:22;99595.38;;;-3.20;66.50
50302;BME280;36550;50.472;19.744;2023-02-10T00:31:07;99597.48;;;-3.11;66.33
50302;BME280;36550;50.472;19.744;2023-02-10T00:33:51;99591.63;;;-3.03;66.41
50302;BME280;36550;50.472;19.744;2023-02-10T00:36:35;99584.98;;;-2.99;66.37
50302;BME280;36550;50.472;19.744;2023-02-10T00:39:19;99597.32;;;-2.97;66.40
50302;BME280;36550;50.472;19.744;2023-02-10T00:42:03;99602.02;;;-2.96;66.39
50302;BME280;36550;50.472;19.744;2023-02-10T00:44:47;99599.09;;;-2.95;66.28
50302;BME280;36550;50.472;19.744;2023-02-10T00:47:31;99605.47;;;-2.96;66.27
50302;BME280;36550;50.472;19.744;2023-02-10T00:50:15;99609.66;;;-2.97;66.36
50302;BME280;36550;50.472;19.744;2023-02-10T00:52:59;99616.91;;;-2.98;66.19
50302;BME280;36550;50.472;19.744;2023-02-10T00:55:42;99622.73;;;-3.00;66.44
50302;BME280;36550;50.472;19.744;2023-02-10T00:58:27;99620.60;;;-3.02;66.58
50302;BME280;36550;50.472;19.744;2023-02-10T01:01:11;99625.40;;;-3.04;66.58
50302;BME280;36550;50.472;19.744;2023-02-10T01:03:55;99627.60;;;-3.06;66.63
50302;BME280;36550;50.472;19.744;2023-02-10T01:06:39;99631.58;;;-3.09;66.49
50302;BME280;36550;50.472;19.744;2023-02-10T01:09:24;99631.15;;;-3.11;66.48
50302;BME280;36550;50.472;19.744;2023-02-10T01:12:08;99631.14;;;-3.13;66.52
50302;BME280;36550;50.472;19.744;2023-02-10T01:14:52;99629.69;;;-3.14;66.56
50302;BME280;36550;50.472;19.744;2023-02-10T01:17:36;99630.34;;;-3.16;66.68
50302;BME280;36550;50.472;19.744;2023-02-10T01:20:20;99627.04;;;-3.18;66.79
50302;BME280;36550;50.472;19.744;2023-02-10T01:23:04;99622.98;;;-3.16;66.83
50302;BME280;36550;50.472;19.744;2023-02-10T01:25:48;99620.40;;;-3.11;66.82
50302;BME280;36550;50.472;19.744;2023-02-10T01:28:32;99616.27;;;-3.06;66.89
50302;BME280;36550;50.472;19.744;2023-02-10T01:31:21;99612.17;;;-3.01;66.98
50302;BME280;36550;50.472;19.744;2023-02-10T01:34:05;99609.14;;;-2.99;67.03
50302;BME280;36550;50.472;19.744;2023-02-10T01:36:48;99609.48;;;-2.99;67.02
50302;BME280;36550;50.472;19.744;2023-02-10T01:39:34;99607.45;;;-3.00;66.95
50302;BME280;36550;50.472;19.744;2023-02-10T01:42:18;99601.87;;;-3.00;67.13
50302;BME280;36550;50.472;19.744;2023-02-10T01:45:34;99603.08;;;-3.01;66.93
50302;BME280;36550;50.472;19.744;2023-02-10T01:48:19;99606.31;;;-3.00;67.03
50302;BME280;36550;50.472;19.744;2023-02-10T01:51:06;99600.70;;;-3.01;67.21
50302;BME280;36550;50.472;19.744;2023-02-10T01:53:51;99598.59;;;-3.00;67.40
50302;BME280;36550;50.472;19.744;2023-02-10T01:56:35;99597.51;;;-2.99;67.34
50302;BME280;36550;50.472;19.744;2023-02-10T01:59:20;99605.21;;;-2.99;67.29
50302;BME280;36550;50.472;19.744;2023-02-10T02:02:06;99598.91;;;-3.00;67.21
50302;BME280;36550;50.472;19.744;2023-02-10T02:04:58;99599.36;;;-3.01;67.21
50302;BME280;36550;50.472;19.744;2023-02-10T02:07:42;99597.83;;;-3.04;67.20
50302;BME280;36550;50.472;19.744;2023-02-10T02:10:35;99595.13;;;-3.07;67.25
50302;BME280;36550;50.472;19.744;2023-02-10T02:13:47;99596.56;;;-3.11;67.30
50302;BME280;36550;50.472;19.744;2023-02-10T02:17:06;99600.80;;;-3.15;67.35
50302;BME280;36550;50.472;19.744;2023-02-10T02:26:26;99596.38;;;-3.22;67.61
50302;BME280;36550;50.472;19.744;2023-02-10T02:29:45;99601.98;;;-3.19;67.76
50302;BME280;36550;50.472;19.744;2023-02-10T02:32:43;99600.95;;;-3.17;67.77
50302;BME280;36550;50.472;19.744;2023-02-10T02:35:38;99591.13;;;-3.16;67.67
50302;BME280;36550;50.472;19.744;2023-02-10T02:38:24;99577.23;;;-3.18;67.83
50302;BME280;36550;50.472;19.744;2023-02-10T02:41:09;99568.80;;;-3.22;67.77
50302;BME280;36550;50.472;19.744;2023-02-10T02:43:54;99569.12;;;-3.27;67.81
50302;BME280;36550;50.472;19.744;2023-02-10T02:47:17;99567.41;;;-3.32;67.74
50302;BME280;36550;50.472;19.744;2023-02-10T02:50:21;99561.29;;;-3.37;67.68
50302;BME280;36550;50.472;19.744;2023-02-10T02:56:45;99565.45;;;-3.45;67.70
50302;BME280;36550;50.472;19.744;2023-02-10T02:59:40;99577.42;;;-3.48;67.72
50302;BME280;36550;50.472;19.744;2023-02-10T03:02:27;99575.50;;;-3.52;67.89
50302;BME280;36550;50.472;19.744;2023-02-10T03:05:20;99578.11;;;-3.56;67.82
50302;BME280;36550;50.472;19.744;2023-02-10T03:08:05;99587.30;;;-3.60;67.89
50302;BME280;36550;50.472;19.744;2023-02-10T03:10:49;99592.16;;;-3.63;67.98
50302;BME280;36550;50.472;19.744;2023-02-10T03:13:34;99599.73;;;-3.67;67.97
50302;BME280;36550;50.472;19.744;2023-02-10T03:16:17;99595.50;;;-3.67;68.08
50302;BME280;36550;50.472;19.744;2023-02-10T03:19:01;99598.48;;;-3.65;68.17
50302;BME280;36550;50.472;19.744;2023-02-10T03:21:45;99599.08;;;-3.64;68.15
50302;BME280;36550;50.472;19.744;2023-02-10T03:24:30;99602.20;;;-3.65;68.15
50302;BME280;36550;50.472;19.744;2023-02-10T03:27:14;99603.30;;;-3.66;68.19
50302;BME280;36550;50.472;19.744;2023-02-10T03:29:58;99609.75;;;-3.68;68.22
50302;BME280;36550;50.472;19.744;2023-02-10T03:32:42;99613.70;;;-3.71;68.28
50302;BME280;36550;50.472;19.744;2023-02-10T03:35:26;99618.37;;;-3.75;68.29
50302;BME280;36550;50.472;19.744;2023-02-10T03:38:11;99615.20;;;-3.78;68.27
50302;BME280;36550;50.472;19.744;2023-02-10T03:40:55;99616.31;;;-3.82;68.42
50302;BME280;36550;50.472;19.744;2023-02-10T03:43:40;99616.89;;;-3.85;68.50
50302;BME280;36550;50.472;19.744;2023-02-10T03:46:27;99613.79;;;-3.90;68.50
50302;BME280;36550;50.472;19.744;2023-02-10T03:49:11;99615.69;;;-3.96;68.35
50302;BME280;36550;50.472;19.744;2023-02-10T03:51:55;99614.05;;;-4.01;68.40
50302;BME280;36550;50.472;19.744;2023-02-10T03:54:39;99612.52;;;-4.07;68.46
50302;BME280;36550;50.472;19.744;2023-02-10T03:57:23;99614.05;;;-4.12;68.50
50302;BME280;36550;50.472;19.744;2023-02-10T04:00:07;99617.73;;;-4.14;68.41
50302;BME280;36550;50.472;19.744;2023-02-10T04:02:51;99616.66;;;-4.13;68.64
50302;BME280;36550;50.472;19.744;2023-02-10T04:05:35;99632.25;;;-4.11;68.66
50302;BME280;36550;50.472;19.744;2023-02-10T04:08:19;99628.10;;;-4.13;68.96
50302;BME280;36550;50.472;19.744;2023-02-10T04:11:03;99629.39;;;-4.14;69.05
50302;BME280;36550;50.472;19.744;2023-02-10T04:13:47;99627.99;;;-4.17;69.00
50302;BME280;36550;50.472;19.744;2023-02-10T04:16:31;99630.54;;;-4.19;68.80
50302;BME280;36550;50.472;19.744;2023-02-10T04:19:17;99630.75;;;-4.22;68.90
50302;BME280;36550;50.472;19.744;2023-02-10T04:22:01;99628.63;;;-4.26;68.94
50302;BME280;36550;50.472;19.744;2023-02-10T04:24:46;99632.30;;;-4.30;68.99
50302;BME280;36550;50.472;19.744;2023-02-10T04:27:30;99637.02;;;-4.34;69.08
50302;BME280;36550;50.472;19.744;2023-02-10T04:30:13;99637.18;;;-4.40;69.04
50302;BME280;36550;50.472;19.744;2023-02-10T04:32:58;99633.38;;;-4.45;69.26
50302;BME280;36550;50.472;19.744;2023-02-10T04:35:42;99634.42;;;-4.47;69.18
50302;BME280;36550;50.472;19.744;2023-02-10T04:38:28;99631.11;;;-4.52;69.39
50302;BME280;36550;50.472;19.744;2023-02-10T04:41:12;99631.25;;;-4.54;69.20
50302;BME280;36550;50.472;19.744;2023-02-10T04:43:56;99634.77;;;-4.53;69.22
50302;BME280;36550;50.472;19.744;2023-02-10T04:46:40;99633.39;;;-4.50;69.24
50302;BME280;36550;50.472;19.744;2023-02-10T04:49:25;99632.20;;;-4.48;69.37
50302;BME280;36550;50.472;19.744;2023-02-10T04:52:09;99631.33;;;-4.44;69.43
50302;BME280;36550;50.472;19.744;2023-02-10T04:54:53;99628.70;;;-4.43;69.56
50302;BME280;36550;50.472;19.744;2023-02-10T04:57:36;99633.77;;;-4.42;69.58
50302;BME280;36550;50.472;19.744;2023-02-10T05:00:20;99630.73;;;-4.43;69.65
50302;BME280;36550;50.472;19.744;2023-02-10T05:03:04;99635.20;;;-4.43;69.47
50302;BME280;36550;50.472;19.744;2023-02-10T05:05:48;99630.02;;;-4.45;69.55
50302;BME280;36550;50.472;19.744;2023-02-10T05:08:34;99636.82;;;-4.47;69.53
50302;BME280;36550;50.472;19.744;2023-02-10T05:11:22;99635.33;;;-4.51;69.57
50302;BME280;36550;50.472;19.744;2023-02-10T05:14:05;99637.23;;;-4.54;69.48
50302;BME280;36550;50.472;19.744;2023-02-10T05:16:50;99640.63;;;-4.56;69.60
50302;BME280;36550;50.472;19.744;2023-02-10T05:19:34;99646.41;;;-4.58;69.56
50302;BME280;36550;50.472;19.744;2023-02-10T05:22:17;99646.48;;;-4.62;69.64
50302;BME280;36550;50.472;19.744;2023-02-10T05:25:01;99645.39;;;-4.64;69.56
50302;BME280;36550;50.472;19.744;2023-02-10T05:27:45;99649.11;;;-4.66;69.52
50302;BME280;36550;50.472;19.744;2023-02-10T05:30:29;99647.45;;;-4.70;69.52
50302;BME280;36550;50.472;19.744;2023-02-10T05:33:13;99643.36;;;-4.72;69.63
50302;BME280;36550;50.472;19.744;2023-02-10T05:35:57;99643.89;;;-4.73;69.49
50302;BME280;36550;50.472;19.744;2023-02-10T05:38:41;99651.84;;;-4.72;69.49
50302;BME280;36550;50.472;19.744;2023-02-10T05:41:46;99660.00;;;-4.68;69.57
50302;BME280;36550;50.472;19.744;2023-02-10T05:44:29;99665.63;;;-4.66;69.60
50302;BME280;36550;50.472;19.744;2023-02-10T05:47:14;99662.73;;;-4.63;69.63
50302;BME280;36550;50.472;19.744;2023-02-10T05:49:58;99666.16;;;-4.60;69.80
50302;BME280;36550;50.472;19.744;2023-02-10T05:52:42;99665.02;;;-4.59;69.89
50302;BME280;36550;50.472;19.744;2023-02-10T05:55:25;99664.17;;;-4.58;69.92
50302;BME280;36550;50.472;19.744;2023-02-10T05:58:09;99667.98;;;-4.60;69.88
50302;BME280;36550;50.472;19.744;2023-02-10T06:00:53;99666.13;;;-4.62;69.80
50302;BME280;36550;50.472;19.744;2023-02-10T06:03:37;99671.38;;;-4.65;69.79
50302;BME280;36550;50.472;19.744;2023-02-10T06:06:21;99671.05;;;-4.68;69.85
50302;BME280;36550;50.472;19.744;2023-02-10T06:09:06;99675.36;;;-4.71;69.96
50302;BME280;36550;50.472;19.744;2023-02-10T06:11:50;99674.89;;;-4.74;69.77
50302;BME280;36550;50.472;19.744;2023-02-10T06:14:35;99672.88;;;-4.78;69.80
50302;BME280;36550;50.472;19.744;2023-02-10T06:17:21;99672.65;;;-4.80;69.78
50302;BME280;36550;50.472;19.744;2023-02-10T06:20:05;99682.80;;;-4.80;69.88
50302;BME280;36550;50.472;19.744;2023-02-10T06:22:49;99683.55;;;-4.82;69.85
50302;BME280;36550;50.472;19.744;2023-02-10T06:25:33;99686.55;;;-4.80;69.84
50302;BME280;36550;50.472;19.744;2023-02-10T06:28:24;99689.76;;;-4.77;69.88
50302;BME280;36550;50.472;19.744;2023-02-10T06:31:08;99694.77;;;-4.70;69.92
50302;BME280;36550;50.472;19.744;2023-02-10T06:33:52;99696.33;;;-4.62;70.04
50302;BME280;36550;50.472;19.744;2023-02-10T06:36:36;99694.41;;;-4.53;69.97
50302;BME280;36550;50.472;19.744;2023-02-10T06:39:20;99694.08;;;-4.45;70.04
50302;BME280;36550;50.472;19.744;2023-02-10T06:42:04;99698.60;;;-4.38;70.09
50302;BME280;36550;50.472;19.744;2023-02-10T06:44:48;99695.67;;;-4.32;70.05
50302;BME280;36550;50.472;19.744;2023-02-10T06:47:32;99694.98;;;-4.27;70.04
50302;BME280;36550;50.472;19.744;2023-02-10T06:50:16;99685.84;;;-4.23;69.91
50302;BME280;36550;50.472;19.744;2023-02-10T06:53:00;99686.40;;;-4.18;69.81
50302;BME280;36550;50.472;19.744;2023-02-10T06:55:45;99693.09;;;-4.13;69.79
50302;BME280;36550;50.472;19.744;2023-02-10T06:58:29;99691.80;;;-4.09;69.69
50302;BME280;36550;50.472;19.744;2023-02-10T07:01:17;99694.23;;;-4.04;69.63
50302;BME280;36550;50.472;19.744;2023-02-10T07:04:01;99696.52;;;-3.97;69.55
50302;BME280;36550;50.472;19.744;2023-02-10T07:06:45;99695.70;;;-3.91;69.52
50302;BME280;36550;50.472;19.744;2023-02-10T07:09:29;99699.73;;;-3.84;69.50
50302;BME280;36550;50.472;19.744;2023-02-10T07:12:13;99691.00;;;-3.79;69.34
50302;BME280;36550;50.472;19.744;2023-02-10T07:14:56;99694.35;;;-3.72;69.26
50302;BME280;36550;50.472;19.744;2023-02-10T07:17:41;99690.34;;;-3.66;69.28
50302;BME280;36550;50.472;19.744;2023-02-10T07:20:24;99691.27;;;-3.59;69.12
50302;BME280;36550;50.472;19.744;2023-02-10T07:23:08;99693.88;;;-3.49;69.07
50302;BME280;36550;50.472;19.744;2023-02-10T07:25:53;99699.77;;;-3.38;68.91
50302;BME280;36550;50.472;19.744;2023-02-10T07:28:37;99697.48;;;-3.27;68.90
50302;BME280;36550;50.472;19.744;2023-02-10T07:31:21;99705.85;;;-3.16;68.76
50302;BME280;36550;50.472;19.744;2023-02-10T07:34:05;99705.06;;;-3.07;68.66
50302;BME280;36550;50.472;19.744;2023-02-10T07:36:49;99703.75;;;-2.98;68.42
50302;BME280;36550;50.472;19.744;2023-02-10T07:39:37;99697.08;;;-2.88;68.39
50302;BME280;36550;50.472;19.744;2023-02-10T07:42:21;99694.13;;;-2.78;68.40
50302;BME280;36550;50.472;19.744;2023-02-10T07:45:05;99695.61;;;-2.67;68.30
50302;BME280;36550;50.472;19.744;2023-02-10T07:47:49;99703.89;;;-2.56;68.09
50302;BME280;36550;50.472;19.744;2023-02-10T07:50:33;99707.66;;;-2.44;67.88
50302;BME280;36550;50.472;19.744;2023-02-10T07:53:18;99715.38;;;-2.29;68.06
50302;BME280;36550;50.472;19.744;2023-02-10T07:56:03;99725.41;;;-2.14;67.85
50302;BME280;36550;50.472;19.744;2023-02-10T07:58:47;99722.03;;;-2.00;67.66
50302;BME280;36550;50.472;19.744;2023-02-10T08:01:31;99723.34;;;-1.85;66.97
50302;BME280;36550;50.472;19.744;2023-02-10T08:04:15;99729.28;;;-1.72;66.47
50302;BME280;36550;50.472;19.744;2023-02-10T08:06:59;99730.13;;;-1.58;66.83
50302;BME280;36550;50.472;19.744;2023-02-10T08:09:43;99714.88;;;-1.45;66.16
50302;BME280;36550;50.472;19.744;2023-02-10T08:12:27;99702.52;;;-1.33;65.76
50302;BME280;36550;50.472;19.744;2023-02-10T08:15:12;99699.89;;;-1.25;65.22
50302;BME280;36550;50.472;19.744;2023-02-10T08:17:58;99699.77;;;-1.17;65.24
50302;BME280;36550;50.472;19.744;2023-02-10T08:20:42;99719.17;;;-1.06;65.74
50302;BME280;36550;50.472;19.744;2023-02-10T08:23:27;99722.65;;;-1.00;65.79
50302;BME280;36550;50.472;19.744;2023-02-10T08:26:12;99717.66;;;-0.95;65.61
50302;BME280;36550;50.472;19.744;2023-02-10T08:28:56;99719.17;;;-0.95;64.83
50302;BME280;36550;50.472;19.744;2023-02-10T08:31:42;99720.86;;;-0.97;64.84
50302;BME280;36550;50.472;19.744;2023-02-10T08:34:26;99727.25;;;-0.99;65.13
50302;BME280;36550;50.472;19.744;2023-02-10T08:37:11;99732.83;;;-1.03;64.53
50302;BME280;36550;50.472;19.744;2023-02-10T08:39:55;99734.45;;;-1.06;64.62
50302;BME280;36550;50.472;19.744;2023-02-10T08:42:39;99731.50;;;-1.05;64.89
50302;BME280;36550;50.472;19.744;2023-02-10T08:45:23;99730.65;;;-1.03;65.05
50302;BME280;36550;50.472;19.744;2023-02-10T08:48:07;99727.65;;;-1.03;64.86
50302;BME280;36550;50.472;19.744;2023-02-10T08:50:51;99726.51;;;-0.99;65.04
50302;BME280;36550;50.472;19.744;2023-02-10T08:53:36;99731.90;;;-0.92;65.32
50302;BME280;36550;50.472;19.744;2023-02-10T08:56:20;99732.27;;;-0.84;65.00
50302;BME280;36550;50.472;19.744;2023-02-10T08:59:05;99729.02;;;-0.73;65.47
50302;BME280;36550;50.472;19.744;2023-02-10T09:01:49;99727.19;;;-0.56;65.52
50302;BME280;36550;50.472;19.744;2023-02-10T09:04:34;99733.29;;;-0.35;65.31
50302;BME280;36550;50.472;19.744;2023-02-10T09:07:17;99737.84;;;-0.06;65.24
50302;BME280;36550;50.472;19.744;2023-02-10T09:10:02;99733.33;;;0.23;64.92
50302;BME280;36550;50.472;19.744;2023-02-10T09:12:46;99724.83;;;0.46;64.26
50302;BME280;36550;50.472;19.744;2023-02-10T09:15:30;99723.66;;;0.71;63.89
50302;BME280;36550;50.472;19.744;2023-02-10T09:18:13;99724.22;;;0.91;64.00
50302;BME280;36550;50.472;19.744;2023-02-10T09:20:58;99717.41;;;1.09;63.51
50302;BME280;36550;50.472;19.744;2023-02-10T09:23:43;99710.58;;;1.28;62.56
50302;BME280;36550;50.472;19.744;2023-02-10T09:26:27;99715.73;;;1.44;61.79
50302;BME280;36550;50.472;19.744;2023-02-10T09:29:11;99714.35;;;1.58;61.13
50302;BME280;36550;50.472;19.744;2023-02-10T09:31:56;99709.65;;;1.72;61.13
50302;BME280;36550;50.472;19.744;2023-02-10T09:34:41;99717.80;;;1.82;61.81
50302;BME280;36550;50.472;19.744;2023-02-10T09:37:27;99719.38;;;1.89;60.98
50302;BME280;36550;50.472;19.744;2023-02-10T09:40:17;99713.11;;;2.00;60.41
50302;BME280;36550;50.472;19.744;2023-02-10T09:43:11;99712.98;;;2.11;59.94
50302;BME280;36550;50.472;19.744;2023-02-10T09:46:08;99706.48;;;2.26;59.95
50302;BME280;36550;50.472;19.744;2023-02-10T09:49:11;99712.70;;;2.50;59.08
50302;BME280;36550;50.472;19.744;2023-02-10T09:52:05;99711.46;;;2.88;59.75
50302;BME280;36550;50.472;19.744;2023-02-10T09:54:53;99710.85;;;3.32;59.78
50302;BME280;36550;50.472;19.744;2023-02-10T09:57:42;99709.07;;;3.78;58.81
50302;BME280;36550;50.472;19.744;2023-02-10T10:00:45;99701.02;;;4.23;57.15
50302;BME280;36550;50.472;19.744;2023-02-10T10:03:52;99699.46;;;4.64;55.80
50302;BME280;36550;50.472;19.744;2023-02-10T10:06:41;99699.06;;;5.04;55.34
50302;BME280;36550;50.472;19.744;2023-02-10T10:09:38;99700.40;;;5.36;56.65
50302;BME280;36550;50.472;19.744;2023-02-10T10:12:24;99698.68;;;5.47;56.17
50302;BME280;36550;50.472;19.744;2023-02-10T10:15:15;99705.81;;;5.51;56.12
50302;BME280;36550;50.472;19.744;2023-02-10T10:21:19;99717.11;;;5.19;55.43
50302;BME280;36550;50.472;19.744;2023-02-10T10:24:22;99720.36;;;5.09;54.31
50302;BME280;36550;50.472;19.744;2023-02-10T10:27:59;99722.00;;;5.07;54.60
50302;BME280;36550;50.472;19.744;2023-02-10T10:34:08;99716.95;;;5.28;54.08
50302;BME280;36550;50.472;19.744;2023-02-10T10:36:56;99720.71;;;5.26;54.24
50302;BME280;36550;50.472;19.744;2023-02-10T10:39:45;99722.19;;;5.18;53.38
50302;BME280;36550;50.472;19.744;2023-02-10T10:42:43;99719.73;;;5.15;53.82
50302;BME280;36550;50.472;19.744;2023-02-10T10:45:34;99721.92;;;5.13;53.44
50302;BME280;36550;50.472;19.744;2023-02-10T10:48:25;99718.45;;;5.06;52.59
50302;BME280;36550;50.472;19.744;2023-02-10T10:51:13;99717.98;;;5.07;53.24
50302;BME280;36550;50.472;19.744;2023-02-10T10:53:58;99713.35;;;5.06;52.32
50302;BME280;36550;50.472;19.744;2023-02-10T10:56:51;99715.11;;;5.16;53.72
50302;BME280;36550;50.472;19.744;2023-02-10T10:59:39;99710.01;;;5.28;53.11
50302;BME280;36550;50.472;19.744;2023-02-10T11:05:15;99714.11;;;5.38;52.15
50302;BME280;36550;50.472;19.744;2023-02-10T11:08:00;99713.93;;;5.43;52.79
50302;BME280;36550;50.472;19.744;2023-02-10T11:10:51;99701.77;;;5.45;51.64
50302;BME280;36550;50.472;19.744;2023-02-10T11:13:39;99702.64;;;5.33;51.32
50302;BME280;36550;50.472;19.744;2023-02-10T11:16:24;99705.95;;;5.27;51.40
50302;BME280;36550;50.472;19.744;2023-02-10T11:19:17;99700.84;;;5.27;51.56
50302;BME280;36550;50.472;19.744;2023-02-10T11:22:01;99697.86;;;5.33;51.92
50302;BME280;36550;50.472;19.744;2023-02-10T11:24:51;99704.66;;;5.44;52.21
50302;BME280;36550;50.472;19.744;2023-02-10T11:27:35;99703.77;;;5.54;51.92
50302;BME280;36550;50.472;19.744;2023-02-10T11:30:36;99704.40;;;5.63;52.33
50302;BME280;36550;50.472;19.744;2023-02-10T11:33:23;99704.47;;;5.82;52.66
50302;BME280;36550;50.472;19.744;2023-02-10T11:36:09;99710.55;;;5.94;52.44
50302;BME280;36550;50.472;19.744;2023-02-10T11:39:06;99709.61;;;5.88;50.75
50302;BME280;36550;50.472;19.744;2023-02-10T11:42:19;99700.98;;;5.76;50.52
50302;BME280;36550;50.472;19.744;2023-02-10T11:45:18;99696.71;;;5.75;51.42
50302;BME280;36550;50.472;19.744;2023-02-10T11:48:16;99694.69;;;5.76;51.36
50302;BME280;36550;50.472;19.744;2023-02-10T11:53:46;99688.04;;;5.74;51.74
50302;BME280;36550;50.472;19.744;2023-02-10T12:03:00;99688.08;;;5.83;52.37
50302;BME280;36550;50.472;19.744;2023-02-10T12:05:54;99689.21;;;5.82;52.81
50302;BME280;36550;50.472;19.744;2023-02-10T12:14:32;99696.07;;;6.02;53.25
50302;BME280;36550;50.472;19.744;2023-02-10T12:17:25;99698.94;;;6.11;53.50
50302;BME280;36550;50.472;19.744;2023-02-10T12:26:29;99703.61;;;5.96;53.00
50302;BME280;36550;50.472;19.744;2023-02-10T12:35:55;99705.38;;;5.30;52.17
50302;BME280;36550;50.472;19.744;2023-02-10T12:38:50;99706.93;;;5.20;52.83
50302;BME280;36550;50.472;19.744;2023-02-10T12:41:47;99713.83;;;5.21;53.45
50302;BME280;36550;50.472;19.744;2023-02-10T12:48:09;99707.15;;;5.40;53.42
50302;BME280;36550;50.472;19.744;2023-02-10T12:51:13;99705.45;;;5.47;52.84
50302;BME280;36550;50.472;19.744;2023-02-10T12:54:02;99707.46;;;5.49;52.82
50302;BME280;36550;50.472;19.744;2023-02-10T12:56:54;99703.09;;;5.46;53.04
50302;BME280;36550;50.472;19.744;2023-02-10T12:59:48;99693.45;;;5.50;53.45
50302;BME280;36550;50.472;19.744;2023-02-10T13:02:41;99690.85;;;5.58;53.43
50302;BME280;36550;50.472;19.744;2023-02-10T13:05:33;99686.15;;;5.64;53.71
50302;BME280;36550;50.472;19.744;2023-02-10T13:08:32;99695.02;;;5.58;53.49
50302;BME280;36550;50.472;19.744;2023-02-10T13:11:48;99703.50;;;5.49;54.13
50302;BME280;36550;50.472;19.744;2023-02-10T13:14:36;99700.78;;;5.41;54.12
50302;BME280;36550;50.472;19.744;2023-02-10T13:17:22;99704.33;;;5.35;54.23
50302;BME280;36550;50.472;19.744;2023-02-10T13:20:42;99708.35;;;5.28;53.45
50302;BME280;36550;50.472;19.744;2023-02-10T13:23:47;99714.86;;;5.20;53.59
50302;BME280;36550;50.472;19.744;2023-02-10T13:26:45;99716.38;;;5.14;53.88
50302;BME280;36550;50.472;19.744;2023-02-10T13:30:06;99711.56;;;5.07;53.45
50302;BME280;36550;50.472;19.744;2023-02-10T13:33:20;99720.14;;;4.98;53.87
50302;BME280;36550;50.472;19.744;2023-02-10T13:36:14;99722.05;;;4.86;53.65
50302;BME280;36550;50.472;19.744;2023-02-10T13:39:02;99735.90;;;4.65;53.25
50302;BME280;36550;50.472;19.744;2023-02-10T13:41:50;99741.16;;;4.36;53.19
50302;BME280;36550;50.472;19.744;2023-02-10T13:44:36;99747.04;;;4.17;53.89
50302;BME280;36550;50.472;19.744;2023-02-10T13:47:30;99745.75;;;4.05;54.59
50302;BME280;36550;50.472;19.744;2023-02-10T13:50:24;99743.15;;;3.98;55.18
50302;BME280;36550;50.472;19.744;2023-02-10T13:59:04;99740.13;;;3.64;56.17
50302;BME280;36550;50.472;19.744;2023-02-10T14:04:59;99739.86;;;3.60;56.79
50302;BME280;36550;50.472;19.744;2023-02-10T14:07:43;99741.95;;;3.54;56.97
50302;BME280;36550;50.472;19.744;2023-02-10T14:10:30;99740.42;;;3.49;57.23
50302;BME280;36550;50.472;19.744;2023-02-10T14:13:23;99742.54;;;3.43;57.52
50302;BME280;36550;50.472;19.744;2023-02-10T14:19:06;99749.54;;;3.29;57.55
50302;BME280;36550;50.472;19.744;2023-02-10T14:21:51;99757.55;;;3.17;57.88
50302;BME280;36550;50.472;19.744;2023-02-10T14:24:42;99754.95;;;3.10;58.37
50302;BME280;36550;50.472;19.744;2023-02-10T14:27:27;99759.14;;;3.06;59.00
50302;BME280;36550;50.472;19.744;2023-02-10T14:30:22;99756.11;;;2.99;59.02
50302;BME280;36550;50.472;19.744;2023-02-10T14:33:53;99756.19;;;2.93;59.29
50302;BME280;36550;50.472;19.744;2023-02-10T14:36:37;99755.55;;;2.86;59.29
50302;BME280;36550;50.472;19.744;2023-02-10T14:39:22;99752.05;;;2.79;60.00
50302;BME280;36550;50.472;19.744;2023-02-10T14:42:07;99749.65;;;2.79;60.21
50302;BME280;36550;50.472;19.744;2023-02-10T14:44:52;99753.65;;;2.77;60.31
50302;BME280;36550;50.472;19.744;2023-02-10T14:47:38;99754.91;;;2.78;60.56
50302;BME280;36550;50.472;19.744;2023-02-10T14:50:30;99758.26;;;2.76;60.42
50302;BME280;36550;50.472;19.744;2023-02-10T14:53:17;99759.33;;;2.71;60.55
50302;BME280;36550;50.472;19.744;2023-02-10T14:56:02;99758.24;;;2.66;60.57
50302;BME280;36550;50.472;19.744;2023-02-10T14:58:46;99757.04;;;2.61;60.87
50302;BME280;36550;50.472;19.744;2023-02-10T15:01:35;99763.71;;;2.52;60.88
50302;BME280;36550;50.472;19.744;2023-02-10T15:04:21;99768.57;;;2.42;61.10
50302;BME280;36550;50.472;19.744;2023-02-10T15:07:14;99766.52;;;2.32;61.23
50302;BME280;36550;50.472;19.744;2023-02-10T15:10:30;99765.11;;;2.23;61.65
50302;BME280;36550;50.472;19.744;2023-02-10T15:13:23;99768.21;;;2.09;62.07
50302;BME280;36550;50.472;19.744;2023-02-10T15:16:12;99770.33;;;1.99;62.11
50302;BME280;36550;50.472;19.744;2023-02-10T15:18:59;99767.39;;;1.88;62.17
50302;BME280;36550;50.472;19.744;2023-02-10T15:21:43;99763.61;;;1.81;62.46
50302;BME280;36550;50.472;19.744;2023-02-10T15:24:31;99765.55;;;1.72;63.02
50302;BME280;36550;50.472;19.744;2023-02-10T15:27:17;99763.07;;;1.67;63.38
50302;BME280;36550;50.472;19.744;2023-02-10T15:30:07;99759.05;;;1.64;63.80
50302;BME280;36550;50.472;19.744;2023-02-10T15:32:54;99754.15;;;1.61;64.02
50302;BME280;36550;50.472;19.744;2023-02-10T15:35:38;99752.15;;;1.58;64.25
50302;BME280;36550;50.472;19.744;2023-02-10T15:38:23;99753.00;;;1.52;64.40
50302;BME280;36550;50.472;19.744;2023-02-10T15:50:00;99779.64;;;1.35;65.33
50302;BME280;36550;50.472;19.744;2023-02-10T15:52:47;99783.63;;;1.30;65.53